Iberica Hav — C6YI3 — position and weather

sailwx.info

Track history (hours):
 
Tides and Currents Weather Stations Pressure Air Temp Water Temp Dewpoint Dewpoint Depression Visibility Wind Speed Wind Dir Waves Ship Positions

Iberica Hav

Last reported at 2018-Apr-26 07:28 UTC. Time now 2018-Apr-26 07:57 UTC.
Position N 53°38' W 000°12'.

Length 88 m; draft 3.8 m.

Type: Cargo ship. MMSI: 311034400.

Date/timePositionNaut miles runAvg speedWind from/ knotsBaromVisibWave heightAir tempDewpointWater temp
2018-Apr-26 07:28N 53°38' W 000°12'0 0.0
2018-Apr-26 06:55N 53°38' W 000°12'0 0.0
2018-Apr-26 01:34N 53°38' W 000°12'0 0.0
2018-Apr-26 01:22N 53°38' W 000°12'0 0.0
2018-Apr-26 00:52N 53°38' W 000°12'0 0.0
2018-Apr-26 00:28N 53°38' W 000°12'0 0.0
2018-Apr-25 23:43N 53°38' W 000°12'0 0.0
2018-Apr-25 23:16N 53°38' W 000°12'0 0.0
2018-Apr-25 22:58N 53°38' W 000°12'0 0.0
2018-Apr-25 22:16N 53°38' W 000°12'0 0.0
2018-Apr-25 21:49N 53°38' W 000°12'0 1.4
2018-Apr-25 21:30N 53°38' W 000°11'0 0.9
2018-Apr-25 21:00N 53°38' W 000°11'3 5.3
2018-Apr-25 20:29N 53°37' W 000°06'59 5.3
2018-Apr-25 09:16N 53°00' E 001°11'2 9.6
2018-Apr-25 09:00N 52°59' E 001°14'5 9.6
2018-Apr-25 08:30N 52°57' E 001°21'5 9.8
2018-Apr-25 08:00N 52°54' E 001°28'5 9.4
2018-Apr-25 07:30N 52°50' E 001°33'4 8.8
2018-Apr-25 07:00N 52°47' E 001°38'4 8.2
2018-Apr-25 06:30N 52°44' E 001°43'4 7.5
2018-Apr-25 06:00N 52°42' E 001°47'30 6.3
2018-Apr-25 01:13N 52°12' E 001°50'2 8.5
2018-Apr-25 01:00N 52°10' E 001°50'4 8.8
2018-Apr-25 00:30N 52°05' E 001°50'5 9.5
2018-Apr-25 00:00N 52°01' E 001°49'5 9.8
2018-Apr-24 23:30N 51°56' E 001°49'5 9.7
2018-Apr-24 23:00N 51°51' E 001°49'5 9.7
2018-Apr-24 22:31N 51°46' E 001°49'6 9.6
2018-Apr-24 21:55N 51°40' E 001°48'5 9.4
2018-Apr-24 21:23N 51°36' E 001°47'4 9.5
2018-Apr-24 21:00N 51°32' E 001°46'5 9.6
2018-Apr-24 20:30N 51°27' E 001°44'5 9.7
2018-Apr-24 20:00N 51°23' E 001°42'5 9.6
2018-Apr-24 19:30N 51°18' E 001°40'5 9.3
2018-Apr-24 19:01N 51°14' E 001°38'4 8.3
2018-Apr-24 18:30N 51°09' E 001°38'4 8.3
2018-Apr-24 18:00N 51°06' E 001°42'4 8.0
2018-Apr-24 17:30N 51°04' E 001°47'5 8.0
2018-Apr-24 16:51N 51°03' E 001°55'3 8.6
2018-Apr-24 16:29N 51°03' E 002°00'5 9.1
2018-Apr-24 15:57N 51°03' E 002°08'5 9.4
2018-Apr-24 15:27N 51°04' E 002°16'4 6.1
2018-Apr-24 14:52N 51°03' E 002°21'0 0.8
2018-Apr-24 14:27N 51°03' E 002°21'3 2.1
2018-Apr-24 13:01N 51°02' E 002°16'0 0.0
2018-Apr-24 11:43N 51°02' E 002°16'0 0.0
2018-Apr-24 11:25N 51°02' E 002°16'0 0.0
2018-Apr-24 10:01N 51°02' E 002°16'0 0.0
2018-Apr-24 09:43N 51°02' E 002°16'0 0.0
2018-Apr-24 09:07N 51°02' E 002°16'0 0.0
2018-Apr-24 08:43N 51°02' E 002°16'0 0.0
2018-Apr-24 07:25N 51°02' E 002°16'0 0.0
2018-Apr-24 06:55N 51°02' E 002°16'0 0.0
2018-Apr-24 06:19N 51°02' E 002°16'0 0.0
2018-Apr-24 05:52N 51°02' E 002°16'0 0.0
2018-Apr-24 05:13N 51°02' E 002°16'0 0.0
2018-Apr-24 04:58N 51°02' E 002°16'0 0.0
2018-Apr-24 04:25N 51°02' E 002°16'0 0.0
2018-Apr-24 03:46N 51°02' E 002°16'0 0.0
2018-Apr-24 03:07N 51°02' E 002°16'0 0.0
2018-Apr-24 02:58N 51°02' E 002°16'0 0.0
2018-Apr-24 02:28N 51°02' E 002°16'0 0.0
2018-Apr-24 01:46N 51°02' E 002°16'0 0.0
2018-Apr-24 01:25N 51°02' E 002°16'0 0.0
2018-Apr-24 00:58N 51°02' E 002°16'0 0.0
2018-Apr-24 00:25N 51°02' E 002°16'0 0.0
2018-Apr-23 23:31N 51°02' E 002°16'0 0.0
2018-Apr-23 23:19N 51°02' E 002°16'0 0.9
2018-Apr-23 22:59N 51°02' E 002°16'3 6.4
2018-Apr-23 22:27N 51°03' E 002°21'1 2.3
2018-Apr-23 21:59N 51°04' E 002°21'3 6.3
2018-Apr-23 21:27N 51°04' E 002°15'3 6.7
2018-Apr-23 20:57N 51°03' E 002°10'3 7.3
2018-Apr-23 20:29N 51°03' E 002°05'4 7.5
2018-Apr-23 19:58N 51°02' E 001°59'4 7.8
2018-Apr-23 19:29N 51°03' E 001°53'2 0.8
2018-Apr-23 16:59N 51°04' E 001°50'0 0.0
2018-Apr-23 16:17N 51°04' E 001°50'0 0.1
2018-Apr-23 15:50N 51°04' E 001°50'0 0.0
2018-Apr-23 15:29N 51°04' E 001°50'0 0.2
2018-Apr-23 14:50N 51°04' E 001°50'0 0.2
2018-Apr-23 14:29N 51°04' E 001°50'0 0.1
2018-Apr-23 13:59N 51°04' E 001°50'0 0.0
2018-Apr-23 13:17N 51°04' E 001°50'0 0.0
2018-Apr-23 12:53N 51°04' E 001°50'0 0.0
2018-Apr-23 12:29N 51°04' E 001°50'0 0.0
2018-Apr-23 11:59N 51°04' E 001°50'0 0.2
2018-Apr-23 11:29N 51°04' E 001°50'0 0.0
2018-Apr-23 10:56N 51°04' E 001°50'0 0.2
2018-Apr-23 10:29N 51°04' E 001°50'0 0.2
2018-Apr-23 09:59N 51°04' E 001°50'0 0.0
2018-Apr-23 09:23N 51°04' E 001°50'0 0.0
2018-Apr-23 08:53N 51°04' E 001°50'0 0.1
2018-Apr-23 08:26N 51°04' E 001°50'0 0.0
2018-Apr-23 07:47N 51°04' E 001°50'0 0.0
2018-Apr-23 07:26N 51°04' E 001°50'0 0.0
2018-Apr-23 06:59N 51°04' E 001°50'0 0.0
2018-Apr-23 06:17N 51°04' E 001°50'0 0.0
2018-Apr-23 04:47N 51°04' E 001°50'0 0.0
2018-Apr-23 04:29N 51°04' E 001°50'0 0.0
2018-Apr-23 03:59N 51°04' E 001°50'0 0.0
2018-Apr-23 03:17N 51°04' E 001°50'0 0.0
2018-Apr-23 02:56N 51°04' E 001°50'0 0.0
2018-Apr-23 02:23N 51°04' E 001°50'0 0.2
2018-Apr-23 01:53N 51°04' E 001°50'0 0.1
2018-Apr-23 01:14N 51°04' E 001°50'0 0.0
2018-Apr-23 00:59N 51°04' E 001°50'0 0.0
2018-Apr-23 00:29N 51°04' E 001°50'0 0.0
2018-Apr-22 23:56N 51°04' E 001°50'0 0.1
2018-Apr-22 23:29N 51°04' E 001°50'0 0.1
2018-Apr-22 22:59N 51°04' E 001°50'0 0.1
2018-Apr-22 22:23N 51°04' E 001°50'0 0.1
2018-Apr-22 21:59N 51°04' E 001°50'0 0.0
2018-Apr-22 21:29N 51°04' E 001°50'0 0.0
2018-Apr-22 20:59N 51°04' E 001°50'0 0.0
2018-Apr-22 20:26N 51°04' E 001°50'0 0.0
2018-Apr-22 19:53N 51°04' E 001°50'0 0.0
2018-Apr-22 19:29N 51°04' E 001°50'0 0.0
2018-Apr-22 18:59N 51°04' E 001°50'0 0.0
2018-Apr-22 18:29N 51°04' E 001°50'0 0.0
2018-Apr-22 17:59N 51°04' E 001°50'0 0.0
2018-Apr-22 17:23N 51°04' E 001°50'0 0.0
2018-Apr-22 16:59N 51°04' E 001°50'0 0.0
2018-Apr-22 16:23N 51°04' E 001°50'0 0.0
2018-Apr-22 15:59N 51°04' E 001°50'0 0.0
2018-Apr-22 15:29N 51°04' E 001°50'0 0.0
2018-Apr-22 14:59N 51°04' E 001°50'0 0.0
2018-Apr-22 14:29N 51°04' E 001°50'0 0.0
2018-Apr-22 13:59N 51°04' E 001°50'0 0.2
2018-Apr-22 13:29N 51°04' E 001°50'0 0.1
2018-Apr-22 12:59N 51°04' E 001°50'0 0.0
2018-Apr-22 12:29N 51°04' E 001°50'0 0.0
2018-Apr-22 11:59N 51°04' E 001°50'0 0.0
2018-Apr-22 11:26N 51°04' E 001°50'0 0.0
2018-Apr-22 10:59N 51°04' E 001°50'0 0.0
2018-Apr-22 10:29N 51°04' E 001°50'0 0.0
2018-Apr-22 09:59N 51°04' E 001°50'0 0.0
2018-Apr-22 09:29N 51°04' E 001°50'0 0.2
2018-Apr-22 08:59N 51°04' E 001°50'0 0.2
2018-Apr-22 08:29N 51°04' E 001°50'0 0.0
2018-Apr-22 07:59N 51°04' E 001°50'0 0.1
2018-Apr-22 07:23N 51°04' E 001°50'0 0.0
2018-Apr-22 06:59N 51°04' E 001°50'0 0.0
2018-Apr-22 06:11N 51°04' E 001°50'0 0.0
2018-Apr-22 05:59N 51°04' E 001°50'0 0.0
2018-Apr-22 05:29N 51°04' E 001°50'0 0.0
2018-Apr-22 04:59N 51°04' E 001°50'0 0.0
2018-Apr-22 04:29N 51°04' E 001°50'0 0.0
2018-Apr-22 03:50N 51°04' E 001°50'0 0.0
2018-Apr-22 03:29N 51°04' E 001°50'0 0.0
2018-Apr-22 02:59N 51°04' E 001°50'0 0.0
2018-Apr-22 02:29N 51°04' E 001°50'0 0.0
2018-Apr-22 01:38N 51°04' E 001°50'0 0.2
2018-Apr-22 01:23N 51°04' E 001°50'0 0.2
2018-Apr-22 01:00N 51°04' E 001°50'1 2.6
2018-Apr-22 00:30N 51°03' E 001°50'2 4.9
2018-Apr-22 00:00N 51°03' E 001°47'3 6.5
2018-Apr-21 23:30N 51°05' E 001°43'5 9.7
2018-Apr-21 23:00N 51°08' E 001°37'4 8.9
2018-Apr-21 22:30N 51°13' E 001°36'4 7.7
2018-Apr-21 22:00N 51°17' E 001°35'4 7.1
2018-Apr-21 21:30N 51°20' E 001°34'3 6.9
2018-Apr-21 21:00N 51°23' E 001°32'3 6.8
2018-Apr-21 20:30N 51°26' E 001°28'4 7.4
2018-Apr-21 20:00N 51°28' E 001°23'19 8.7
2018-Apr-21 17:50N 51°29' E 000°53'4 8.5
2018-Apr-21 17:24N 51°29' E 000°47'4 8.7
2018-Apr-21 16:55N 51°30' E 000°40'4 9.9
2018-Apr-21 16:30N 51°30' E 000°34'4 8.8
2018-Apr-21 16:00N 51°28' E 000°27'4 8.0
2018-Apr-21 15:30N 51°27' E 000°21'0 1.0
2018-Apr-21 15:01N 51°27' E 000°21'0 0.7
2018-Apr-21 14:31N 51°28' E 000°21'0 0.0
2018-Apr-21 14:01N 51°28' E 000°21'0 0.0
2018-Apr-21 13:31N 51°28' E 000°21'0 0.0
2018-Apr-21 13:01N 51°28' E 000°21'0 0.0
2018-Apr-21 12:31N 51°28' E 000°21'0 0.0
2018-Apr-21 12:01N 51°28' E 000°21'0 0.0
2018-Apr-21 11:31N 51°28' E 000°21'0 0.0
2018-Apr-21 11:00N 51°28' E 000°21'0 0.0
2018-Apr-21 10:31N 51°28' E 000°21'0 0.0
2018-Apr-21 10:01N 51°28' E 000°21'0 0.0
2018-Apr-21 09:31N 51°28' E 000°21'0 0.0
2018-Apr-21 09:01N 51°28' E 000°21'0 0.0
2018-Apr-21 08:31N 51°28' E 000°21'0 0.0
2018-Apr-21 08:01N 51°28' E 000°21'0 0.0
2018-Apr-21 07:31N 51°28' E 000°21'0 0.0
2018-Apr-21 07:00N 51°28' E 000°21'0 0.1
2018-Apr-21 06:31N 51°28' E 000°21'0 0.0
2018-Apr-21 06:01N 51°28' E 000°21'0 0.0
2018-Apr-21 05:30N 51°28' E 000°21'0 0.0
2018-Apr-21 05:01N 51°28' E 000°21'0 0.0
2018-Apr-21 04:31N 51°28' E 000°21'0 0.0
2018-Apr-21 04:01N 51°28' E 000°21'0 0.0
2018-Apr-21 03:30N 51°28' E 000°21'0 0.0
2018-Apr-21 03:01N 51°28' E 000°21'0 0.0
2018-Apr-21 02:31N 51°28' E 000°21'0 0.0
2018-Apr-21 02:01N 51°28' E 000°21'0 0.0
2018-Apr-21 01:31N 51°28' E 000°21'0 0.0
2018-Apr-21 01:01N 51°28' E 000°21'0 0.0
2018-Apr-21 00:31N 51°28' E 000°21'0 0.0
2018-Apr-21 00:00N 51°28' E 000°21'0 0.0
2018-Apr-20 23:31N 51°28' E 000°21'0 0.0
2018-Apr-20 23:01N 51°28' E 000°21'0 0.0
2018-Apr-20 22:31N 51°28' E 000°21'0 0.0
2018-Apr-20 22:01N 51°28' E 000°21'0 0.0
2018-Apr-20 21:31N 51°28' E 000°21'0 0.0
2018-Apr-20 21:01N 51°28' E 000°21'0 0.0
2018-Apr-20 20:31N 51°28' E 000°21'0 0.0
2018-Apr-20 20:01N 51°28' E 000°21'0 0.0
2018-Apr-20 19:31N 51°28' E 000°21'0 0.0
2018-Apr-20 19:01N 51°28' E 000°21'0 0.0
2018-Apr-20 18:31N 51°28' E 000°21'0 0.0
2018-Apr-20 18:01N 51°28' E 000°21'0 0.0
2018-Apr-20 17:31N 51°28' E 000°21'0 0.0
2018-Apr-20 17:01N 51°28' E 000°21'0 0.0
2018-Apr-20 16:31N 51°28' E 000°21'0 0.0
2018-Apr-20 16:01N 51°28' E 000°21'0 0.0
2018-Apr-20 15:31N 51°28' E 000°21'0 0.0
2018-Apr-20 15:01N 51°28' E 000°21'0 0.0
2018-Apr-20 14:31N 51°28' E 000°21'0 0.0
2018-Apr-20 14:01N 51°28' E 000°21'0 0.0
2018-Apr-20 13:31N 51°28' E 000°21'0 0.0
2018-Apr-20 13:01N 51°28' E 000°21'0 0.0
2018-Apr-20 12:31N 51°28' E 000°21'0 0.0
2018-Apr-20 12:01N 51°28' E 000°21'0 0.0
2018-Apr-20 11:31N 51°28' E 000°21'0 0.0
2018-Apr-20 11:00N 51°28' E 000°21'0 0.0
2018-Apr-20 10:31N 51°28' E 000°21'0 0.0
2018-Apr-20 10:01N 51°28' E 000°21'0 0.0
2018-Apr-20 09:31N 51°28' E 000°21'0 0.0
2018-Apr-20 09:01N 51°28' E 000°21'0 0.0
2018-Apr-20 08:31N 51°28' E 000°21'0 0.0
2018-Apr-20 08:01N 51°28' E 000°21'0 0.0
2018-Apr-20 07:31N 51°28' E 000°21'0 0.0
2018-Apr-20 07:00N 51°28' E 000°21'0 0.0
2018-Apr-20 06:30N 51°28' E 000°21'0 0.0
2018-Apr-20 06:01N 51°28' E 000°21'0 0.0
2018-Apr-20 05:31N 51°28' E 000°21'0 0.0
2018-Apr-20 05:00N 51°28' E 000°21'0 0.0
2018-Apr-20 04:31N 51°28' E 000°21'0 0.0
2018-Apr-20 04:01N 51°28' E 000°21'0 0.0
2018-Apr-20 03:31N 51°28' E 000°21'0 0.0
2018-Apr-20 03:01N 51°28' E 000°21'0 0.0
2018-Apr-20 02:31N 51°28' E 000°21'0 0.0
2018-Apr-20 02:01N 51°28' E 000°21'0 0.0
2018-Apr-20 01:31N 51°28' E 000°21'0 0.0
2018-Apr-20 01:01N 51°28' E 000°21'0 0.0
2018-Apr-20 00:31N 51°28' E 000°21'0 0.0
2018-Apr-20 00:01N 51°28' E 000°21'0 0.0
2018-Apr-19 23:31N 51°28' E 000°21'0 0.0
2018-Apr-19 23:01N 51°28' E 000°21'0 0.0
2018-Apr-19 22:31N 51°28' E 000°21'0 0.0
2018-Apr-19 22:01N 51°28' E 000°21'0 0.0
2018-Apr-19 21:31N 51°28' E 000°21'0 0.0
2018-Apr-19 21:01N 51°28' E 000°21'0 0.0
2018-Apr-19 20:31N 51°28' E 000°21'0 0.0
2018-Apr-19 20:01N 51°28' E 000°21'0 0.0
2018-Apr-19 19:31N 51°28' E 000°21'0 0.0
2018-Apr-19 19:01N 51°28' E 000°21'0 0.0
2018-Apr-19 18:31N 51°28' E 000°21'0 0.0
2018-Apr-19 18:01N 51°28' E 000°21'0 0.1
2018-Apr-19 17:31N 51°28' E 000°21'0 0.0
2018-Apr-19 17:01N 51°28' E 000°21'0 0.0
2018-Apr-19 16:31N 51°28' E 000°21'0 0.0
2018-Apr-19 16:01N 51°28' E 000°21'0 0.0
2018-Apr-19 15:31N 51°28' E 000°21'0 0.0
2018-Apr-19 15:01N 51°28' E 000°21'0 0.0
2018-Apr-19 14:31N 51°28' E 000°21'0 0.0
2018-Apr-19 14:01N 51°28' E 000°21'0 0.0
2018-Apr-19 13:31N 51°28' E 000°21'0 0.0
2018-Apr-19 13:01N 51°28' E 000°21'0 0.0
2018-Apr-19 12:31N 51°28' E 000°21'0 0.0
2018-Apr-19 12:01N 51°28' E 000°21'0 0.0
2018-Apr-19 11:31N 51°28' E 000°21'0 0.0
2018-Apr-19 11:01N 51°28' E 000°21'0 0.0
2018-Apr-19 10:31N 51°28' E 000°21'0 0.0
2018-Apr-19 10:01N 51°28' E 000°21'0 0.0
2018-Apr-19 09:31N 51°28' E 000°21'0 0.0
2018-Apr-19 09:01N 51°28' E 000°21'0 0.4
2018-Apr-19 08:30N 51°27' E 000°21'0 0.7
2018-Apr-19 08:01N 51°27' E 000°20'1 2.7
2018-Apr-19 07:31N 51°27' E 000°23'3 6.0
2018-Apr-19 07:01N 51°28' E 000°27'3 6.2
2018-Apr-19 06:31N 51°30' E 000°31'3 6.1
2018-Apr-19 06:00N 51°30' E 000°36'3 6.0
2018-Apr-19 05:30N 51°30' E 000°41'3 6.3
2018-Apr-19 05:00N 51°30' E 000°46'3 6.4
2018-Apr-19 04:30N 51°30' E 000°51'3 6.5
2018-Apr-19 04:00N 51°29' E 000°56'3 6.9
2018-Apr-19 03:30N 51°30' E 001°01'4 6.9
2018-Apr-19 02:59N 51°30' E 001°07'6 7.4
2018-Apr-19 02:08N 51°29' E 001°17'1 8.2
2018-Apr-19 01:59N 51°29' E 001°19'4 7.9
2018-Apr-19 01:30N 51°30' E 001°25'4 8.3
2018-Apr-19 01:00N 51°32' E 001°31'4 8.3
2018-Apr-19 00:30N 51°34' E 001°37'4 7.9
2018-Apr-19 00:00N 51°35' E 001°43'4 8.1
2018-Apr-18 23:30N 51°37' E 001°48'4 8.2
2018-Apr-18 23:00N 51°40' E 001°53'4 8.2
2018-Apr-18 22:30N 51°42' E 001°59'4 8.5
2018-Apr-18 22:00N 51°45' E 002°04'510.8
2018-Apr-18 21:30N 51°48' E 002°11'510.6
2018-Apr-18 21:00N 51°51' E 002°18'77 8.3
2018-Apr-18 11:44N 52°31' E 004°05'2 9.2
2018-Apr-18 11:30N 52°31' E 004°08'5 8.9
2018-Apr-18 10:59N 52°30' E 004°16'4 8.6
2018-Apr-18 10:30N 52°30' E 004°22'4 9.2
2018-Apr-18 10:00N 52°29' E 004°30'4 7.3
2018-Apr-18 09:30N 52°28' E 004°36'2 3.2
2018-Apr-18 09:00N 52°28' E 004°38'5 9.2
2018-Apr-18 08:30N 52°26' E 004°45'4 9.0
2018-Apr-18 08:01N 52°25' E 004°52'0 0.9
2018-Apr-18 07:28N 52°24' E 004°52'0 0.0
2018-Apr-18 06:58N 52°24' E 004°52'0 0.0
2018-Apr-18 06:28N 52°24' E 004°52'0 0.0
2018-Apr-18 05:58N 52°24' E 004°52'0 0.0
2018-Apr-18 05:28N 52°24' E 004°52'0 0.0
2018-Apr-18 04:58N 52°24' E 004°52'0 0.0
2018-Apr-18 04:28N 52°24' E 004°52'0 0.0
2018-Apr-18 03:58N 52°24' E 004°52'0 0.0
2018-Apr-18 03:28N 52°24' E 004°52'0 0.0
2018-Apr-18 02:58N 52°24' E 004°52'0 0.0
2018-Apr-18 02:28N 52°24' E 004°52'0 0.0
2018-Apr-18 01:58N 52°24' E 004°52'0 0.0
2018-Apr-18 01:28N 52°24' E 004°52'0 0.0
2018-Apr-18 00:58N 52°24' E 004°52'0 0.0
2018-Apr-18 00:28N 52°24' E 004°52'0 0.0
2018-Apr-17 23:58N 52°24' E 004°52'0 0.0
2018-Apr-17 23:28N 52°24' E 004°52'0 0.0
2018-Apr-17 22:58N 52°24' E 004°52'0 0.0
2018-Apr-17 22:28N 52°24' E 004°52'0 0.0
2018-Apr-17 21:58N 52°24' E 004°52'0 0.0
2018-Apr-17 21:28N 52°24' E 004°52'0 0.0
2018-Apr-17 20:58N 52°24' E 004°52'0 0.0
2018-Apr-17 20:28N 52°24' E 004°52'0 0.0
2018-Apr-17 19:58N 52°24' E 004°52'0 0.0
2018-Apr-17 19:28N 52°24' E 004°52'0 0.0
2018-Apr-17 18:58N 52°24' E 004°52'0 0.0
2018-Apr-17 18:28N 52°24' E 004°52'0 0.0
2018-Apr-17 17:58N 52°24' E 004°52'0 0.0
2018-Apr-17 17:28N 52°24' E 004°52'0 0.0
2018-Apr-17 16:58N 52°24' E 004°52'0 0.0
2018-Apr-17 16:28N 52°24' E 004°52'0 0.0
2018-Apr-17 15:58N 52°24' E 004°52'0 0.0
2018-Apr-17 15:28N 52°24' E 004°52'0 0.0
2018-Apr-17 14:58N 52°24' E 004°52'0 0.0
2018-Apr-17 14:28N 52°24' E 004°52'0 0.0
2018-Apr-17 13:58N 52°24' E 004°52'0 0.0
2018-Apr-17 13:28N 52°24' E 004°52'0 0.0
2018-Apr-17 12:58N 52°24' E 004°52'0 0.0
2018-Apr-17 12:28N 52°24' E 004°52'0 0.0
2018-Apr-17 11:58N 52°24' E 004°52'0 0.0
2018-Apr-17 11:25N 52°24' E 004°52'0 0.0
2018-Apr-17 10:58N 52°24' E 004°52'0 0.0
2018-Apr-17 10:28N 52°24' E 004°52'0 0.0
2018-Apr-17 09:58N 52°24' E 004°52'0 0.0
2018-Apr-17 09:28N 52°24' E 004°52'0 0.0
2018-Apr-17 08:58N 52°24' E 004°52'0 0.0
2018-Apr-17 08:28N 52°24' E 004°52'0 0.0
2018-Apr-17 07:58N 52°24' E 004°52'0 0.0
2018-Apr-17 07:28N 52°24' E 004°52'0 0.0
2018-Apr-17 06:58N 52°24' E 004°52'0 0.0
2018-Apr-17 06:28N 52°24' E 004°52'0 0.0
2018-Apr-17 05:58N 52°24' E 004°52'0 0.0
2018-Apr-17 05:28N 52°24' E 004°52'0 0.0
2018-Apr-17 04:58N 52°24' E 004°52'0 0.0
2018-Apr-17 04:28N 52°24' E 004°52'0 0.0
2018-Apr-17 03:58N 52°24' E 004°52'0 0.0
2018-Apr-17 03:28N 52°24' E 004°52'0 0.0
2018-Apr-17 02:58N 52°24' E 004°52'0 0.0
2018-Apr-17 02:28N 52°24' E 004°52'0 0.0
2018-Apr-17 01:58N 52°24' E 004°52'0 0.0
2018-Apr-17 01:28N 52°24' E 004°52'0 0.0
2018-Apr-17 00:58N 52°24' E 004°52'0 0.0
2018-Apr-17 00:28N 52°24' E 004°52'0 0.0
2018-Apr-16 23:58N 52°24' E 004°52'0 0.0
2018-Apr-16 23:28N 52°24' E 004°52'0 0.0
2018-Apr-16 22:58N 52°24' E 004°52'0 0.0
2018-Apr-16 22:28N 52°24' E 004°52'0 0.0
2018-Apr-16 21:58N 52°24' E 004°52'0 0.0
2018-Apr-16 21:28N 52°24' E 004°52'0 0.0
2018-Apr-16 20:58N 52°24' E 004°52'0 0.0
2018-Apr-16 20:28N 52°24' E 004°52'0 0.0
2018-Apr-16 19:58N 52°24' E 004°52'0 0.0
2018-Apr-16 19:25N 52°24' E 004°52'0 0.0
2018-Apr-16 18:58N 52°24' E 004°52'0 0.0
2018-Apr-16 18:28N 52°24' E 004°52'0 0.0
2018-Apr-16 17:58N 52°24' E 004°52'0 0.0
2018-Apr-16 17:28N 52°24' E 004°52'0 0.0
2018-Apr-16 16:58N 52°24' E 004°52'0 0.0
2018-Apr-16 16:28N 52°24' E 004°52'0 0.0
2018-Apr-16 15:58N 52°24' E 004°52'0 0.0
2018-Apr-16 15:28N 52°24' E 004°52'0 0.0
2018-Apr-16 14:58N 52°24' E 004°52'0 0.0
2018-Apr-16 14:25N 52°24' E 004°52'0 0.0
2018-Apr-16 13:58N 52°24' E 004°52'0 0.0
2018-Apr-16 13:28N 52°24' E 004°52'0 0.0
2018-Apr-16 12:58N 52°24' E 004°52'0 0.0
2018-Apr-16 12:28N 52°24' E 004°52'0 0.0
2018-Apr-16 11:58N 52°24' E 004°52'0 0.0
2018-Apr-16 11:28N 52°24' E 004°52'0 0.0
2018-Apr-16 10:58N 52°24' E 004°52'0 0.0
2018-Apr-16 10:28N 52°24' E 004°52'0 0.0
2018-Apr-16 09:58N 52°24' E 004°52'0 0.0
2018-Apr-16 09:28N 52°24' E 004°52'0 0.0
2018-Apr-16 08:58N 52°24' E 004°52'0 0.0
2018-Apr-16 08:28N 52°24' E 004°52'0 0.0
2018-Apr-16 07:58N 52°24' E 004°52'  
Track history (hours):
 
Tides and Currents Weather Stations Pressure Air Temp Water Temp Dewpoint Dewpoint Depression Visibility Wind Speed Wind Dir Waves Ship Positions

Iberica Hav

Last reported at 2018-Apr-26 07:28 UTC. Time now 2018-Apr-26 07:57 UTC.
Position N 53°38' W 000°12'.

Length 88 m; draft 3.8 m.

Type: Cargo ship. MMSI: 311034400.

Date/timePositionNaut miles runAvg speedWind from/ knotsBaromVisibWave heightAir tempDewpointWater temp
2018-Apr-26 07:28N 53°38' W 000°12'0 0.0
2018-Apr-26 06:55N 53°38' W 000°12'0 0.0
2018-Apr-26 01:34N 53°38' W 000°12'0 0.0
2018-Apr-26 01:22N 53°38' W 000°12'0 0.0
2018-Apr-26 00:52N 53°38' W 000°12'0 0.0
2018-Apr-26 00:28N 53°38' W 000°12'0 0.0
2018-Apr-25 23:43N 53°38' W 000°12'0 0.0
2018-Apr-25 23:16N 53°38' W 000°12'0 0.0
2018-Apr-25 22:58N 53°38' W 000°12'0 0.0
2018-Apr-25 22:16N 53°38' W 000°12'0 0.0
2018-Apr-25 21:49N 53°38' W 000°12'0 1.4
2018-Apr-25 21:30N 53°38' W 000°11'0 0.9
2018-Apr-25 21:00N 53°38' W 000°11'3 5.3
2018-Apr-25 20:29N 53°37' W 000°06'59 5.3
2018-Apr-25 09:16N 53°00' E 001°11'2 9.6
2018-Apr-25 09:00N 52°59' E 001°14'5 9.6
2018-Apr-25 08:30N 52°57' E 001°21'5 9.8
2018-Apr-25 08:00N 52°54' E 001°28'5 9.4
2018-Apr-25 07:30N 52°50' E 001°33'4 8.8
2018-Apr-25 07:00N 52°47' E 001°38'4 8.2
2018-Apr-25 06:30N 52°44' E 001°43'4 7.5
2018-Apr-25 06:00N 52°42' E 001°47'30 6.3
2018-Apr-25 01:13N 52°12' E 001°50'2 8.5
2018-Apr-25 01:00N 52°10' E 001°50'4 8.8
2018-Apr-25 00:30N 52°05' E 001°50'5 9.5
2018-Apr-25 00:00N 52°01' E 001°49'5 9.8
2018-Apr-24 23:30N 51°56' E 001°49'5 9.7
2018-Apr-24 23:00N 51°51' E 001°49'5 9.7
2018-Apr-24 22:31N 51°46' E 001°49'6 9.6
2018-Apr-24 21:55N 51°40' E 001°48'5 9.4
2018-Apr-24 21:23N 51°36' E 001°47'4 9.5
2018-Apr-24 21:00N 51°32' E 001°46'5 9.6
2018-Apr-24 20:30N 51°27' E 001°44'5 9.7
2018-Apr-24 20:00N 51°23' E 001°42'5 9.6
2018-Apr-24 19:30N 51°18' E 001°40'5 9.3
2018-Apr-24 19:01N 51°14' E 001°38'4 8.3
2018-Apr-24 18:30N 51°09' E 001°38'4 8.3
2018-Apr-24 18:00N 51°06' E 001°42'4 8.0
2018-Apr-24 17:30N 51°04' E 001°47'5 8.0
2018-Apr-24 16:51N 51°03' E 001°55'3 8.6
2018-Apr-24 16:29N 51°03' E 002°00'5 9.1
2018-Apr-24 15:57N 51°03' E 002°08'5 9.4
2018-Apr-24 15:27N 51°04' E 002°16'4 6.1
2018-Apr-24 14:52N 51°03' E 002°21'0 0.8
2018-Apr-24 14:27N 51°03' E 002°21'3 2.1
2018-Apr-24 13:01N 51°02' E 002°16'0 0.0
2018-Apr-24 11:43N 51°02' E 002°16'0 0.0
2018-Apr-24 11:25N 51°02' E 002°16'0 0.0
2018-Apr-24 10:01N 51°02' E 002°16'0 0.0
2018-Apr-24 09:43N 51°02' E 002°16'0 0.0
2018-Apr-24 09:07N 51°02' E 002°16'0 0.0
2018-Apr-24 08:43N 51°02' E 002°16'0 0.0
2018-Apr-24 07:25N 51°02' E 002°16'0 0.0
2018-Apr-24 06:55N 51°02' E 002°16'0 0.0
2018-Apr-24 06:19N 51°02' E 002°16'0 0.0
2018-Apr-24 05:52N 51°02' E 002°16'0 0.0
2018-Apr-24 05:13N 51°02' E 002°16'0 0.0
2018-Apr-24 04:58N 51°02' E 002°16'0 0.0
2018-Apr-24 04:25N 51°02' E 002°16'0 0.0
2018-Apr-24 03:46N 51°02' E 002°16'0 0.0
2018-Apr-24 03:07N 51°02' E 002°16'0 0.0
2018-Apr-24 02:58N 51°02' E 002°16'0 0.0
2018-Apr-24 02:28N 51°02' E 002°16'0 0.0
2018-Apr-24 01:46N 51°02' E 002°16'0 0.0
2018-Apr-24 01:25N 51°02' E 002°16'0 0.0
2018-Apr-24 00:58N 51°02' E 002°16'0 0.0
2018-Apr-24 00:25N 51°02' E 002°16'0 0.0
2018-Apr-23 23:31N 51°02' E 002°16'0 0.0
2018-Apr-23 23:19N 51°02' E 002°16'0 0.9
2018-Apr-23 22:59N 51°02' E 002°16'3 6.4
2018-Apr-23 22:27N 51°03' E 002°21'1 2.3
2018-Apr-23 21:59N 51°04' E 002°21'3 6.3
2018-Apr-23 21:27N 51°04' E 002°15'3 6.7
2018-Apr-23 20:57N 51°03' E 002°10'3 7.3
2018-Apr-23 20:29N 51°03' E 002°05'4 7.5
2018-Apr-23 19:58N 51°02' E 001°59'4 7.8
2018-Apr-23 19:29N 51°03' E 001°53'2 0.8
2018-Apr-23 16:59N 51°04' E 001°50'0 0.0
2018-Apr-23 16:17N 51°04' E 001°50'0 0.1
2018-Apr-23 15:50N 51°04' E 001°50'0 0.0
2018-Apr-23 15:29N 51°04' E 001°50'0 0.2
2018-Apr-23 14:50N 51°04' E 001°50'0 0.2
2018-Apr-23 14:29N 51°04' E 001°50'0 0.1
2018-Apr-23 13:59N 51°04' E 001°50'0 0.0
2018-Apr-23 13:17N 51°04' E 001°50'0 0.0
2018-Apr-23 12:53N 51°04' E 001°50'0 0.0
2018-Apr-23 12:29N 51°04' E 001°50'0 0.0
2018-Apr-23 11:59N 51°04' E 001°50'0 0.2
2018-Apr-23 11:29N 51°04' E 001°50'0 0.0
2018-Apr-23 10:56N 51°04' E 001°50'0 0.2
2018-Apr-23 10:29N 51°04' E 001°50'0 0.2
2018-Apr-23 09:59N 51°04' E 001°50'0 0.0
2018-Apr-23 09:23N 51°04' E 001°50'0 0.0
2018-Apr-23 08:53N 51°04' E 001°50'0 0.1
2018-Apr-23 08:26N 51°04' E 001°50'0 0.0
2018-Apr-23 07:47N 51°04' E 001°50'0 0.0
2018-Apr-23 07:26N 51°04' E 001°50'0 0.0
2018-Apr-23 06:59N 51°04' E 001°50'0 0.0
2018-Apr-23 06:17N 51°04' E 001°50'0 0.0
2018-Apr-23 04:47N 51°04' E 001°50'0 0.0
2018-Apr-23 04:29N 51°04' E 001°50'0 0.0
2018-Apr-23 03:59N 51°04' E 001°50'0 0.0
2018-Apr-23 03:17N 51°04' E 001°50'0 0.0
2018-Apr-23 02:56N 51°04' E 001°50'0 0.0
2018-Apr-23 02:23N 51°04' E 001°50'0 0.2
2018-Apr-23 01:53N 51°04' E 001°50'0 0.1
2018-Apr-23 01:14N 51°04' E 001°50'0 0.0
2018-Apr-23 00:59N 51°04' E 001°50'0 0.0
2018-Apr-23 00:29N 51°04' E 001°50'0 0.0
2018-Apr-22 23:56N 51°04' E 001°50'0 0.1
2018-Apr-22 23:29N 51°04' E 001°50'0 0.1
2018-Apr-22 22:59N 51°04' E 001°50'0 0.1
2018-Apr-22 22:23N 51°04' E 001°50'0 0.1
2018-Apr-22 21:59N 51°04' E 001°50'0 0.0
2018-Apr-22 21:29N 51°04' E 001°50'0 0.0
2018-Apr-22 20:59N 51°04' E 001°50'0 0.0
2018-Apr-22 20:26N 51°04' E 001°50'0 0.0
2018-Apr-22 19:53N 51°04' E 001°50'0 0.0
2018-Apr-22 19:29N 51°04' E 001°50'0 0.0
2018-Apr-22 18:59N 51°04' E 001°50'0 0.0
2018-Apr-22 18:29N 51°04' E 001°50'0 0.0
2018-Apr-22 17:59N 51°04' E 001°50'0 0.0
2018-Apr-22 17:23N 51°04' E 001°50'0 0.0
2018-Apr-22 16:59N 51°04' E 001°50'0 0.0
2018-Apr-22 16:23N 51°04' E 001°50'0 0.0
2018-Apr-22 15:59N 51°04' E 001°50'0 0.0
2018-Apr-22 15:29N 51°04' E 001°50'0 0.0
2018-Apr-22 14:59N 51°04' E 001°50'0 0.0
2018-Apr-22 14:29N 51°04' E 001°50'0 0.0
2018-Apr-22 13:59N 51°04' E 001°50'0 0.2
2018-Apr-22 13:29N 51°04' E 001°50'0 0.1
2018-Apr-22 12:59N 51°04' E 001°50'0 0.0
2018-Apr-22 12:29N 51°04' E 001°50'0 0.0
2018-Apr-22 11:59N 51°04' E 001°50'0 0.0
2018-Apr-22 11:26N 51°04' E 001°50'0 0.0
2018-Apr-22 10:59N 51°04' E 001°50'0 0.0
2018-Apr-22 10:29N 51°04' E 001°50'0 0.0
2018-Apr-22 09:59N 51°04' E 001°50'0 0.0
2018-Apr-22 09:29N 51°04' E 001°50'0 0.2
2018-Apr-22 08:59N 51°04' E 001°50'0 0.2
2018-Apr-22 08:29N 51°04' E 001°50'0 0.0
2018-Apr-22 07:59N 51°04' E 001°50'0 0.1
2018-Apr-22 07:23N 51°04' E 001°50'0 0.0
2018-Apr-22 06:59N 51°04' E 001°50'0 0.0
2018-Apr-22 06:11N 51°04' E 001°50'0 0.0
2018-Apr-22 05:59N 51°04' E 001°50'0 0.0
2018-Apr-22 05:29N 51°04' E 001°50'0 0.0
2018-Apr-22 04:59N 51°04' E 001°50'0 0.0
2018-Apr-22 04:29N 51°04' E 001°50'0 0.0
2018-Apr-22 03:50N 51°04' E 001°50'0 0.0
2018-Apr-22 03:29N 51°04' E 001°50'0 0.0
2018-Apr-22 02:59N 51°04' E 001°50'0 0.0
2018-Apr-22 02:29N 51°04' E 001°50'0 0.0
2018-Apr-22 01:38N 51°04' E 001°50'0 0.2
2018-Apr-22 01:23N 51°04' E 001°50'0 0.2
2018-Apr-22 01:00N 51°04' E 001°50'1 2.6
2018-Apr-22 00:30N 51°03' E 001°50'2 4.9
2018-Apr-22 00:00N 51°03' E 001°47'3 6.5
2018-Apr-21 23:30N 51°05' E 001°43'5 9.7
2018-Apr-21 23:00N 51°08' E 001°37'4 8.9
2018-Apr-21 22:30N 51°13' E 001°36'4 7.7
2018-Apr-21 22:00N 51°17' E 001°35'4 7.1
2018-Apr-21 21:30N 51°20' E 001°34'3 6.9
2018-Apr-21 21:00N 51°23' E 001°32'3 6.8
2018-Apr-21 20:30N 51°26' E 001°28'4 7.4
2018-Apr-21 20:00N 51°28' E 001°23'19 8.7
2018-Apr-21 17:50N 51°29' E 000°53'4 8.5
2018-Apr-21 17:24N 51°29' E 000°47'4 8.7
2018-Apr-21 16:55N 51°30' E 000°40'4 9.9
2018-Apr-21 16:30N 51°30' E 000°34'4 8.8
2018-Apr-21 16:00N 51°28' E 000°27'4 8.0
2018-Apr-21 15:30N 51°27' E 000°21'0 1.0
2018-Apr-21 15:01N 51°27' E 000°21'0 0.7
2018-Apr-21 14:31N 51°28' E 000°21'0 0.0
2018-Apr-21 14:01N 51°28' E 000°21'0 0.0
2018-Apr-21 13:31N 51°28' E 000°21'0 0.0
2018-Apr-21 13:01N 51°28' E 000°21'0 0.0
2018-Apr-21 12:31N 51°28' E 000°21'0 0.0
2018-Apr-21 12:01N 51°28' E 000°21'0 0.0
2018-Apr-21 11:31N 51°28' E 000°21'0 0.0
2018-Apr-21 11:00N 51°28' E 000°21'0 0.0
2018-Apr-21 10:31N 51°28' E 000°21'0 0.0
2018-Apr-21 10:01N 51°28' E 000°21'0 0.0
2018-Apr-21 09:31N 51°28' E 000°21'0 0.0
2018-Apr-21 09:01N 51°28' E 000°21'0 0.0
2018-Apr-21 08:31N 51°28' E 000°21'0 0.0
2018-Apr-21 08:01N 51°28' E 000°21'0 0.0
2018-Apr-21 07:31N 51°28' E 000°21'0 0.0
2018-Apr-21 07:00N 51°28' E 000°21'0 0.1
2018-Apr-21 06:31N 51°28' E 000°21'0 0.0
2018-Apr-21 06:01N 51°28' E 000°21'0 0.0
2018-Apr-21 05:30N 51°28' E 000°21'0 0.0
2018-Apr-21 05:01N 51°28' E 000°21'0 0.0
2018-Apr-21 04:31N 51°28' E 000°21'0 0.0
2018-Apr-21 04:01N 51°28' E 000°21'0 0.0
2018-Apr-21 03:30N 51°28' E 000°21'0 0.0
2018-Apr-21 03:01N 51°28' E 000°21'0 0.0
2018-Apr-21 02:31N 51°28' E 000°21'0 0.0
2018-Apr-21 02:01N 51°28' E 000°21'0 0.0
2018-Apr-21 01:31N 51°28' E 000°21'0 0.0
2018-Apr-21 01:01N 51°28' E 000°21'0 0.0
2018-Apr-21 00:31N 51°28' E 000°21'0 0.0
2018-Apr-21 00:00N 51°28' E 000°21'0 0.0
2018-Apr-20 23:31N 51°28' E 000°21'0 0.0
2018-Apr-20 23:01N 51°28' E 000°21'0 0.0
2018-Apr-20 22:31N 51°28' E 000°21'0 0.0
2018-Apr-20 22:01N 51°28' E 000°21'0 0.0
2018-Apr-20 21:31N 51°28' E 000°21'0 0.0
2018-Apr-20 21:01N 51°28' E 000°21'0 0.0
2018-Apr-20 20:31N 51°28' E 000°21'0 0.0
2018-Apr-20 20:01N 51°28' E 000°21'0 0.0
2018-Apr-20 19:31N 51°28' E 000°21'0 0.0
2018-Apr-20 19:01N 51°28' E 000°21'0 0.0
2018-Apr-20 18:31N 51°28' E 000°21'0 0.0
2018-Apr-20 18:01N 51°28' E 000°21'0 0.0
2018-Apr-20 17:31N 51°28' E 000°21'0 0.0
2018-Apr-20 17:01N 51°28' E 000°21'0 0.0
2018-Apr-20 16:31N 51°28' E 000°21'0 0.0
2018-Apr-20 16:01N 51°28' E 000°21'0 0.0
2018-Apr-20 15:31N 51°28' E 000°21'0 0.0
2018-Apr-20 15:01N 51°28' E 000°21'0 0.0
2018-Apr-20 14:31N 51°28' E 000°21'0 0.0
2018-Apr-20 14:01N 51°28' E 000°21'0 0.0
2018-Apr-20 13:31N 51°28' E 000°21'0 0.0
2018-Apr-20 13:01N 51°28' E 000°21'0 0.0
2018-Apr-20 12:31N 51°28' E 000°21'0 0.0
2018-Apr-20 12:01N 51°28' E 000°21'0 0.0
2018-Apr-20 11:31N 51°28' E 000°21'0 0.0
2018-Apr-20 11:00N 51°28' E 000°21'0 0.0
2018-Apr-20 10:31N 51°28' E 000°21'0 0.0
2018-Apr-20 10:01N 51°28' E 000°21'0 0.0
2018-Apr-20 09:31N 51°28' E 000°21'0 0.0
2018-Apr-20 09:01N 51°28' E 000°21'0 0.0
2018-Apr-20 08:31N 51°28' E 000°21'0 0.0
2018-Apr-20 08:01N 51°28' E 000°21'0 0.0
2018-Apr-20 07:31N 51°28' E 000°21'0 0.0
2018-Apr-20 07:00N 51°28' E 000°21'0 0.0
2018-Apr-20 06:30N 51°28' E 000°21'0 0.0
2018-Apr-20 06:01N 51°28' E 000°21'0 0.0
2018-Apr-20 05:31N 51°28' E 000°21'0 0.0
2018-Apr-20 05:00N 51°28' E 000°21'0 0.0
2018-Apr-20 04:31N 51°28' E 000°21'0 0.0
2018-Apr-20 04:01N 51°28' E 000°21'0 0.0
2018-Apr-20 03:31N 51°28' E 000°21'0 0.0
2018-Apr-20 03:01N 51°28' E 000°21'0 0.0
2018-Apr-20 02:31N 51°28' E 000°21'0 0.0
2018-Apr-20 02:01N 51°28' E 000°21'0 0.0
2018-Apr-20 01:31N 51°28' E 000°21'0 0.0
2018-Apr-20 01:01N 51°28' E 000°21'0 0.0
2018-Apr-20 00:31N 51°28' E 000°21'0 0.0
2018-Apr-20 00:01N 51°28' E 000°21'0 0.0
2018-Apr-19 23:31N 51°28' E 000°21'0 0.0
2018-Apr-19 23:01N 51°28' E 000°21'0 0.0
2018-Apr-19 22:31N 51°28' E 000°21'0 0.0
2018-Apr-19 22:01N 51°28' E 000°21'0 0.0
2018-Apr-19 21:31N 51°28' E 000°21'0 0.0
2018-Apr-19 21:01N 51°28' E 000°21'0 0.0
2018-Apr-19 20:31N 51°28' E 000°21'0 0.0
2018-Apr-19 20:01N 51°28' E 000°21'0 0.0
2018-Apr-19 19:31N 51°28' E 000°21'0 0.0
2018-Apr-19 19:01N 51°28' E 000°21'0 0.0
2018-Apr-19 18:31N 51°28' E 000°21'0 0.0
2018-Apr-19 18:01N 51°28' E 000°21'0 0.1
2018-Apr-19 17:31N 51°28' E 000°21'0 0.0
2018-Apr-19 17:01N 51°28' E 000°21'0 0.0
2018-Apr-19 16:31N 51°28' E 000°21'0 0.0
2018-Apr-19 16:01N 51°28' E 000°21'0 0.0
2018-Apr-19 15:31N 51°28' E 000°21'0 0.0
2018-Apr-19 15:01N 51°28' E 000°21'0 0.0
2018-Apr-19 14:31N 51°28' E 000°21'0 0.0
2018-Apr-19 14:01N 51°28' E 000°21'0 0.0
2018-Apr-19 13:31N 51°28' E 000°21'0 0.0
2018-Apr-19 13:01N 51°28' E 000°21'0 0.0
2018-Apr-19 12:31N 51°28' E 000°21'0 0.0
2018-Apr-19 12:01N 51°28' E 000°21'0 0.0
2018-Apr-19 11:31N 51°28' E 000°21'0 0.0
2018-Apr-19 11:01N 51°28' E 000°21'0 0.0
2018-Apr-19 10:31N 51°28' E 000°21'0 0.0
2018-Apr-19 10:01N 51°28' E 000°21'0 0.0
2018-Apr-19 09:31N 51°28' E 000°21'0 0.0
2018-Apr-19 09:01N 51°28' E 000°21'0 0.4
2018-Apr-19 08:30N 51°27' E 000°21'0 0.7
2018-Apr-19 08:01N 51°27' E 000°20'1 2.7
2018-Apr-19 07:31N 51°27' E 000°23'3 6.0
2018-Apr-19 07:01N 51°28' E 000°27'3 6.2
2018-Apr-19 06:31N 51°30' E 000°31'3 6.1
2018-Apr-19 06:00N 51°30' E 000°36'3 6.0
2018-Apr-19 05:30N 51°30' E 000°41'3 6.3
2018-Apr-19 05:00N 51°30' E 000°46'3 6.4
2018-Apr-19 04:30N 51°30' E 000°51'3 6.5
2018-Apr-19 04:00N 51°29' E 000°56'3 6.9
2018-Apr-19 03:30N 51°30' E 001°01'4 6.9
2018-Apr-19 02:59N 51°30' E 001°07'6 7.4
2018-Apr-19 02:08N 51°29' E 001°17'1 8.2
2018-Apr-19 01:59N 51°29' E 001°19'4 7.9
2018-Apr-19 01:30N 51°30' E 001°25'4 8.3
2018-Apr-19 01:00N 51°32' E 001°31'4 8.3
2018-Apr-19 00:30N 51°34' E 001°37'4 7.9
2018-Apr-19 00:00N 51°35' E 001°43'4 8.1
2018-Apr-18 23:30N 51°37' E 001°48'4 8.2
2018-Apr-18 23:00N 51°40' E 001°53'4 8.2
2018-Apr-18 22:30N 51°42' E 001°59'4 8.5
2018-Apr-18 22:00N 51°45' E 002°04'510.8
2018-Apr-18 21:30N 51°48' E 002°11'510.6
2018-Apr-18 21:00N 51°51' E 002°18'77 8.3
2018-Apr-18 11:44N 52°31' E 004°05'2 9.2
2018-Apr-18 11:30N 52°31' E 004°08'5 8.9
2018-Apr-18 10:59N 52°30' E 004°16'4 8.6
2018-Apr-18 10:30N 52°30' E 004°22'4 9.2
2018-Apr-18 10:00N 52°29' E 004°30'4 7.3
2018-Apr-18 09:30N 52°28' E 004°36'2 3.2
2018-Apr-18 09:00N 52°28' E 004°38'5 9.2
2018-Apr-18 08:30N 52°26' E 004°45'4 9.0
2018-Apr-18 08:01N 52°25' E 004°52'0 0.9
2018-Apr-18 07:28N 52°24' E 004°52'0 0.0
2018-Apr-18 06:58N 52°24' E 004°52'0 0.0
2018-Apr-18 06:28N 52°24' E 004°52'0 0.0
2018-Apr-18 05:58N 52°24' E 004°52'0 0.0
2018-Apr-18 05:28N 52°24' E 004°52'0 0.0
2018-Apr-18 04:58N 52°24' E 004°52'0 0.0
2018-Apr-18 04:28N 52°24' E 004°52'0 0.0
2018-Apr-18 03:58N 52°24' E 004°52'0 0.0
2018-Apr-18 03:28N 52°24' E 004°52'0 0.0
2018-Apr-18 02:58N 52°24' E 004°52'0 0.0
2018-Apr-18 02:28N 52°24' E 004°52'0 0.0
2018-Apr-18 01:58N 52°24' E 004°52'0 0.0
2018-Apr-18 01:28N 52°24' E 004°52'0 0.0
2018-Apr-18 00:58N 52°24' E 004°52'0 0.0
2018-Apr-18 00:28N 52°24' E 004°52'0 0.0
2018-Apr-17 23:58N 52°24' E 004°52'0 0.0
2018-Apr-17 23:28N 52°24' E 004°52'0 0.0
2018-Apr-17 22:58N 52°24' E 004°52'0 0.0
2018-Apr-17 22:28N 52°24' E 004°52'0 0.0
2018-Apr-17 21:58N 52°24' E 004°52'0 0.0
2018-Apr-17 21:28N 52°24' E 004°52'0 0.0
2018-Apr-17 20:58N 52°24' E 004°52'0 0.0
2018-Apr-17 20:28N 52°24' E 004°52'0 0.0
2018-Apr-17 19:58N 52°24' E 004°52'0 0.0
2018-Apr-17 19:28N 52°24' E 004°52'0 0.0
2018-Apr-17 18:58N 52°24' E 004°52'0 0.0
2018-Apr-17 18:28N 52°24' E 004°52'0 0.0
2018-Apr-17 17:58N 52°24' E 004°52'0 0.0
2018-Apr-17 17:28N 52°24' E 004°52'0 0.0
2018-Apr-17 16:58N 52°24' E 004°52'0 0.0
2018-Apr-17 16:28N 52°24' E 004°52'0 0.0
2018-Apr-17 15:58N 52°24' E 004°52'0 0.0
2018-Apr-17 15:28N 52°24' E 004°52'0 0.0
2018-Apr-17 14:58N 52°24' E 004°52'0 0.0
2018-Apr-17 14:28N 52°24' E 004°52'0 0.0
2018-Apr-17 13:58N 52°24' E 004°52'0 0.0
2018-Apr-17 13:28N 52°24' E 004°52'0 0.0
2018-Apr-17 12:58N 52°24' E 004°52'0 0.0
2018-Apr-17 12:28N 52°24' E 004°52'0 0.0
2018-Apr-17 11:58N 52°24' E 004°52'0 0.0
2018-Apr-17 11:25N 52°24' E 004°52'0 0.0
2018-Apr-17 10:58N 52°24' E 004°52'0 0.0
2018-Apr-17 10:28N 52°24' E 004°52'0 0.0
2018-Apr-17 09:58N 52°24' E 004°52'0 0.0
2018-Apr-17 09:28N 52°24' E 004°52'0 0.0
2018-Apr-17 08:58N 52°24' E 004°52'0 0.0
2018-Apr-17 08:28N 52°24' E 004°52'0 0.0
2018-Apr-17 07:58N 52°24' E 004°52'0 0.0
2018-Apr-17 07:28N 52°24' E 004°52'0 0.0
2018-Apr-17 06:58N 52°24' E 004°52'0 0.0
2018-Apr-17 06:28N 52°24' E 004°52'0 0.0
2018-Apr-17 05:58N 52°24' E 004°52'0 0.0
2018-Apr-17 05:28N 52°24' E 004°52'0 0.0
2018-Apr-17 04:58N 52°24' E 004°52'0 0.0
2018-Apr-17 04:28N 52°24' E 004°52'0 0.0
2018-Apr-17 03:58N 52°24' E 004°52'0 0.0
2018-Apr-17 03:28N 52°24' E 004°52'0 0.0
2018-Apr-17 02:58N 52°24' E 004°52'0 0.0
2018-Apr-17 02:28N 52°24' E 004°52'0 0.0
2018-Apr-17 01:58N 52°24' E 004°52'0 0.0
2018-Apr-17 01:28N 52°24' E 004°52'0 0.0
2018-Apr-17 00:58N 52°24' E 004°52'0 0.0
2018-Apr-17 00:28N 52°24' E 004°52'0 0.0
2018-Apr-16 23:58N 52°24' E 004°52'0 0.0
2018-Apr-16 23:28N 52°24' E 004°52'0 0.0
2018-Apr-16 22:58N 52°24' E 004°52'0 0.0
2018-Apr-16 22:28N 52°24' E 004°52'0 0.0
2018-Apr-16 21:58N 52°24' E 004°52'0 0.0
2018-Apr-16 21:28N 52°24' E 004°52'0 0.0
2018-Apr-16 20:58N 52°24' E 004°52'0 0.0
2018-Apr-16 20:28N 52°24' E 004°52'0 0.0
2018-Apr-16 19:58N 52°24' E 004°52'0 0.0
2018-Apr-16 19:25N 52°24' E 004°52'0 0.0
2018-Apr-16 18:58N 52°24' E 004°52'0 0.0
2018-Apr-16 18:28N 52°24' E 004°52'0 0.0
2018-Apr-16 17:58N 52°24' E 004°52'0 0.0
2018-Apr-16 17:28N 52°24' E 004°52'0 0.0
2018-Apr-16 16:58N 52°24' E 004°52'0 0.0
2018-Apr-16 16:28N 52°24' E 004°52'0 0.0
2018-Apr-16 15:58N 52°24' E 004°52'0 0.0
2018-Apr-16 15:28N 52°24' E 004°52'0 0.0
2018-Apr-16 14:58N 52°24' E 004°52'0 0.0
2018-Apr-16 14:25N 52°24' E 004°52'0 0.0
2018-Apr-16 13:58N 52°24' E 004°52'0 0.0
2018-Apr-16 13:28N 52°24' E 004°52'0 0.0
2018-Apr-16 12:58N 52°24' E 004°52'0 0.0
2018-Apr-16 12:28N 52°24' E 004°52'0 0.0
2018-Apr-16 11:58N 52°24' E 004°52'0 0.0
2018-Apr-16 11:28N 52°24' E 004°52'0 0.0
2018-Apr-16 10:58N 52°24' E 004°52'0 0.0
2018-Apr-16 10:28N 52°24' E 004°52'0 0.0
2018-Apr-16 09:58N 52°24' E 004°52'0 0.0
2018-Apr-16 09:28N 52°24' E 004°52'0 0.0
2018-Apr-16 08:58N 52°24' E 004°52'0 0.0
2018-Apr-16 08:28N 52°24' E 004°52'0 0.0
2018-Apr-16 07:58N 52°24' E 004°52'  

Dump ship's entire track history